Погода Песьцюхана 2 недели

Люблинское воеводство, Польша

18 - 30 июля
  • 18июля
    Сегодня
    +15°
    +27°
    Практически безоблачно
    ВремяПогодаТемператураВлажностьДавлениеВетер, м/сВероятность осадков
    02:00Облачно с прояснениями+19°C66 %751 мм1.2 м/с30 %
    05:00Облачно с прояснениями+18°C75 %751 мм1.6 м/с41 %
    08:00Ясно и безоблачно+21°C66 %752 мм2.6 м/с12 %
    11:00Ясно и безоблачно+24°C52 %752 мм3.7 м/с2 %
    14:00Практически безоблачно+26°C44 %751 мм4.5 м/с2 %
    17:00Практически безоблачно+26°C43 %751 мм4.9 м/с1 %
    20:00Ясно и безоблачно+23°C52 %751 мм3.0 м/с2 %
    23:00Практически безоблачно+19°C63 %752 мм2.8 м/с2 %
  • 19июля
    Пятница
    +13°
    +26°
    Ясно и безоблачно
    ВремяПогодаТемператураВлажностьДавлениеВетер, м/сВероятность осадков
    02:00Небольшая облачность+17°C71 %752 мм2.6 м/с2 %
    05:00Облачно с прояснениями+16°C83 %752 мм2.5 м/с2 %
    08:00Облачно с прояснениями+19°C73 %752 мм1.9 м/с2 %
    11:00Ясно и безоблачно+23°C50 %752 мм3.2 м/с2 %
    14:00Ясно и безоблачно+25°C42 %751 мм4.4 м/с2 %
    17:00Ясно и безоблачно+26°C41 %750 мм4.6 м/с2 %
    20:00Ясно и безоблачно+22°C53 %749 мм2.5 м/с2 %
    23:00Ясно и безоблачно+18°C62 %749 мм2.6 м/с2 %
  • 20июля
    Суббота
    +14°
    +26°
    Облачно с прояснениями
    ВремяПогодаТемператураВлажностьДавлениеВетер, м/сВероятность осадков
    02:00Ясно и безоблачно+16°C76 %749 мм2.1 м/с2 %
    05:00Ясно и безоблачно+14°C87 %748 мм1.5 м/с2 %
    08:00Ясно и безоблачно+19°C65 %748 мм0.4 м/с2 %
    11:00Облачно с прояснениями+23°C51 %748 мм1.9 м/с2 %
    14:00Облачно с прояснениями+25°C42 %747 мм1.9 м/с2 %
    17:00Облачно с прояснениями+26°C37 %746 мм2.4 м/с2 %
    20:00Небольшая облачность+22°C62 %746 мм2.0 м/с2 %
    23:00Практически безоблачно+17°C59 %745 мм2.1 м/с2 %
  • 21июля
    Воскресенье
    +14°
    +28°
    Ясно и безоблачно
    ВремяПогодаТемператураВлажностьДавлениеВетер, м/сВероятность осадков
    02:00Ясно и безоблачно+15°C71 %745 мм1.9 м/с2 %
    05:00Ясно и безоблачно+16°C70 %745 мм1.1 м/с2 %
    08:00Ясно и безоблачно+21°C57 %745 мм0.3 м/с2 %
    11:00Ясно и безоблачно+25°C40 %745 мм1.0 м/с2 %
    14:00Ясно и безоблачно+26°C37 %744 мм1.0 м/с3 %
    17:00Ясно и безоблачно+28°C35 %743 мм1.8 м/с3 %
    20:00Ясно и безоблачно+23°C55 %743 мм1.7 м/с2 %
    23:00Ясно и безоблачно+19°C59 %743 мм1.9 м/с2 %
Мы используем cookies
Соглашаюсь